createdAt,value
2024-03-22T00:00:36.637Z,89035.00
2024-03-22T00:01:36.636Z,89036.00
2024-03-22T00:02:36.634Z,89035.00
2024-03-22T00:03:36.644Z,89035.00
2024-03-22T00:04:36.642Z,89034.00
2024-03-22T00:05:36.699Z,89033.00
2024-03-22T00:06:36.631Z,89033.00
2024-03-22T00:07:36.676Z,89033.00
2024-03-22T00:08:36.629Z,89031.00
2024-03-22T00:09:36.625Z,89033.00
2024-03-22T00:10:36.615Z,89035.00
2024-03-22T00:11:36.625Z,89032.00
2024-03-22T00:12:36.592Z,89035.00
2024-03-22T00:13:36.605Z,89034.00
2024-03-22T00:14:37.026Z,89035.00
2024-03-22T00:15:36.589Z,89036.00
2024-03-22T00:16:36.600Z,89036.00
2024-03-22T00:17:36.586Z,89037.00
2024-03-22T00:18:36.571Z,89038.00
2024-03-22T00:19:36.585Z,89039.00
2024-03-22T00:20:36.658Z,89035.00
2024-03-22T00:21:36.708Z,89037.00
2024-03-22T00:22:36.765Z,89039.00
2024-03-22T00:23:36.887Z,89036.00
2024-03-22T00:24:36.886Z,89037.00
2024-03-22T00:25:36.953Z,89038.00
2024-03-22T00:26:37.054Z,89039.00
2024-03-22T00:27:37.090Z,89038.00
2024-03-22T00:28:37.146Z,89039.00
2024-03-22T00:29:37.248Z,89039.00
2024-03-22T00:30:39.932Z,89040.00
2024-03-22T00:31:37.283Z,89039.00
2024-03-22T00:32:37.323Z,89036.00
2024-03-22T00:33:37.274Z,89036.00
2024-03-22T00:34:37.276Z,89038.00
2024-03-22T00:35:37.310Z,89038.00
2024-03-22T00:36:37.246Z,89038.00
2024-03-22T00:37:37.252Z,89037.00
2024-03-22T00:38:37.246Z,89037.00
2024-03-22T00:39:37.231Z,89040.00
2024-03-22T00:40:37.212Z,89038.00
2024-03-22T00:41:37.217Z,89037.00
2024-03-22T00:42:37.220Z,89038.00
2024-03-22T00:43:37.218Z,89034.00
2024-03-22T00:44:37.243Z,89032.00
2024-03-22T00:45:37.227Z,89032.00
2024-03-22T00:46:37.344Z,89037.00
2024-03-22T00:47:37.244Z,89034.00
2024-03-22T00:48:37.212Z,89034.00
2024-03-22T00:49:37.231Z,89032.00
2024-03-22T00:50:37.267Z,89032.00
2024-03-22T00:51:37.219Z,89031.00
2024-03-22T00:52:37.248Z,89028.00
2024-03-22T00:53:37.345Z,89028.00
2024-03-22T00:54:37.379Z,89027.00
2024-03-22T00:55:37.452Z,89026.00
2024-03-22T00:56:37.529Z,89028.00
2024-03-22T00:57:37.582Z,89028.00
2024-03-22T00:58:37.652Z,89029.00
2024-03-22T00:59:37.760Z,89028.00
2024-03-22T01:00:37.799Z,89027.00
2024-03-22T01:01:37.863Z,89027.00
2024-03-22T01:02:37.928Z,89024.00
2024-03-22T01:03:38.000Z,89023.00
2024-03-22T01:04:38.051Z,89022.00
2024-03-22T01:05:38.125Z,89020.00
2024-03-22T01:06:38.192Z,89020.00
2024-03-22T01:07:38.268Z,89017.00
2024-03-22T01:08:38.362Z,89019.00
2024-03-22T01:09:38.392Z,89019.00
2024-03-22T01:10:38.463Z,89018.00
2024-03-22T01:11:38.531Z,89017.00
2024-03-22T01:12:38.604Z,89015.00
2024-03-22T01:13:38.646Z,89016.00
2024-03-22T01:14:38.725Z,89012.00
2024-03-22T01:15:38.790Z,89009.00
2024-03-22T01:16:38.848Z,89009.00
2024-03-22T01:17:38.924Z,89008.00
2024-03-22T01:18:38.951Z,89007.00
2024-03-22T01:19:38.960Z,89002.00
2024-03-22T01:20:38.970Z,89007.00
2024-03-22T01:21:38.954Z,89006.00
2024-03-22T01:22:38.944Z,89004.00
2024-03-22T01:23:38.981Z,89005.00
2024-03-22T01:24:38.956Z,89005.00
2024-03-22T01:25:38.953Z,89002.00
2024-03-22T01:26:38.980Z,89001.00
2024-03-22T01:27:39.022Z,89003.00
2024-03-22T01:28:39.071Z,89000.00
2024-03-22T01:29:39.150Z,88998.00
2024-03-22T01:30:39.182Z,88996.00
2024-03-22T01:31:39.240Z,88998.00
2024-03-22T01:32:39.327Z,89001.00
2024-03-22T01:33:39.382Z,89001.00
2024-03-22T01:34:39.443Z,88996.00
2024-03-22T01:35:39.525Z,88993.00
2024-03-22T01:36:39.568Z,88993.00
2024-03-22T01:37:39.612Z,88996.00
2024-03-22T01:38:39.703Z,88995.00
2024-03-22T01:39:39.742Z,88991.00
2024-03-22T01:40:39.788Z,88991.00
2024-03-22T01:41:39.863Z,88994.00
2024-03-22T01:42:39.895Z,88995.00
2024-03-22T01:43:39.966Z,88995.00
2024-03-22T01:44:40.018Z,88993.00
2024-03-22T01:45:40.067Z,88990.00
2024-03-22T01:46:40.136Z,88995.00
2024-03-22T01:47:40.199Z,88994.00
2024-03-22T01:48:40.251Z,88994.00
2024-03-22T01:49:40.245Z,88993.00
2024-03-22T01:50:40.300Z,88992.00
2024-03-22T01:51:40.234Z,88990.00
2024-03-22T01:52:40.228Z,88986.00
2024-03-22T01:53:40.236Z,88984.00
2024-03-22T01:54:40.212Z,88985.00
2024-03-22T01:55:40.208Z,88986.00
2024-03-22T01:56:40.238Z,88984.00
2024-03-22T01:57:40.267Z,88983.00
2024-03-22T01:58:40.327Z,88983.00
2024-03-22T01:59:40.397Z,88984.00
2024-03-22T02:00:40.461Z,88983.00
2024-03-22T02:01:40.531Z,88980.00
2024-03-22T02:02:40.600Z,88980.00
2024-03-22T02:03:40.642Z,88981.00
2024-03-22T02:04:40.688Z,88980.00
2024-03-22T02:05:40.812Z,88980.00
2024-03-22T02:06:40.809Z,88980.00
2024-03-22T02:07:40.844Z,88980.00
2024-03-22T02:08:40.874Z,88978.00
2024-03-22T02:09:40.932Z,88977.00
2024-03-22T02:10:40.985Z,88977.00
2024-03-22T02:11:41.077Z,88976.00
2024-03-22T02:12:41.159Z,88978.00
2024-03-22T02:13:41.256Z,88976.00
2024-03-22T02:14:41.362Z,88976.00
2024-03-22T02:15:41.471Z,88973.00
2024-03-22T02:16:41.568Z,88971.00
2024-03-22T02:17:41.631Z,88971.00
2024-03-22T02:18:41.724Z,88970.00
2024-03-22T02:19:41.822Z,88970.00
2024-03-22T02:20:41.868Z,88971.00
2024-03-22T02:21:41.951Z,88970.00
2024-03-22T02:22:42.007Z,88972.00
2024-03-22T02:23:42.099Z,88972.00
2024-03-22T02:24:42.149Z,88972.00
2024-03-22T02:25:42.247Z,88968.00
2024-03-22T02:26:42.401Z,88967.00
2024-03-22T02:27:42.369Z,88969.00
2024-03-22T02:28:42.423Z,88969.00
2024-03-22T02:29:42.485Z,88969.00
2024-03-22T02:30:42.547Z,88968.00
2024-03-22T02:31:42.636Z,88967.00
2024-03-22T02:32:42.685Z,88966.00
2024-03-22T02:33:42.773Z,88965.00
2024-03-22T02:34:55.392Z,88965.00
2024-03-22T02:35:43.822Z,88964.00
2024-03-22T02:36:42.829Z,88961.00
2024-03-22T02:37:42.820Z,88961.00
2024-03-22T02:38:42.819Z,88961.00
2024-03-22T02:39:42.820Z,88961.00
2024-03-22T02:40:42.821Z,88958.00
2024-03-22T02:41:42.815Z,88955.00
2024-03-22T02:42:42.814Z,88956.00
2024-03-22T02:43:42.858Z,88953.00
2024-03-22T02:44:42.909Z,88956.00
2024-03-22T02:45:42.982Z,88955.00
2024-03-22T02:46:43.040Z,88954.00
2024-03-22T02:47:43.141Z,88954.00
2024-03-22T02:48:43.197Z,88951.00
2024-03-22T02:49:43.223Z,88950.00
2024-03-22T02:50:43.300Z,88949.00
2024-03-22T02:51:43.340Z,88947.00
2024-03-22T02:52:43.392Z,88944.00
2024-03-22T02:53:43.464Z,88945.00
2024-03-22T02:54:43.523Z,88943.00
2024-03-22T02:55:43.563Z,88939.00
2024-03-22T02:56:43.564Z,88938.00
2024-03-22T02:57:43.578Z,88940.00
2024-03-22T02:58:43.563Z,88941.00
2024-03-22T02:59:43.567Z,88936.00
2024-03-22T03:00:43.568Z,88936.00
2024-03-22T03:01:43.563Z,88933.00
2024-03-22T03:02:43.558Z,88937.00
2024-03-22T03:03:43.574Z,88935.00
2024-03-22T03:04:43.557Z,88933.00
2024-03-22T03:05:43.565Z,88935.00
2024-03-22T03:06:43.583Z,88933.00
2024-03-22T03:07:43.623Z,88935.00
2024-03-22T03:08:43.661Z,88937.00
2024-03-22T03:09:43.764Z,88935.00
2024-03-22T03:10:43.852Z,88935.00
2024-03-22T03:11:43.955Z,88936.00
2024-03-22T03:12:43.997Z,88936.00
2024-03-22T03:13:44.060Z,88933.00
2024-03-22T03:14:44.110Z,88937.00
2024-03-22T03:15:44.159Z,88938.00
2024-03-22T03:16:44.224Z,88935.00
2024-03-22T03:17:44.280Z,88937.00
2024-03-22T03:18:44.309Z,88939.00
2024-03-22T03:19:44.360Z,88936.00
2024-03-22T03:20:44.453Z,88939.00
2024-03-22T03:21:44.501Z,88936.00
2024-03-22T03:22:44.585Z,88935.00
2024-03-22T03:23:44.648Z,88932.00
2024-03-22T03:24:44.699Z,88934.00
2024-03-22T03:25:44.789Z,88932.00
2024-03-22T03:26:44.852Z,88934.00
2024-03-22T03:27:44.931Z,88933.00
2024-03-22T03:28:44.992Z,88930.00
2024-03-22T03:29:45.035Z,88928.00
2024-03-22T03:30:45.082Z,88929.00
2024-03-22T03:31:45.155Z,88928.00
2024-03-22T03:32:45.211Z,88926.00
2024-03-22T03:33:45.291Z,88925.00
2024-03-22T03:34:45.320Z,88926.00
2024-03-22T03:35:45.371Z,88927.00
2024-03-22T03:36:45.417Z,88928.00
2024-03-22T03:37:45.438Z,88925.00
2024-03-22T03:38:45.504Z,88926.00
2024-03-22T03:39:45.522Z,88924.00
2024-03-22T03:40:45.560Z,88926.00
2024-03-22T03:41:45.583Z,88928.00
2024-03-22T03:42:45.608Z,88927.00
2024-03-22T03:43:45.699Z,88929.00
2024-03-22T03:44:45.798Z,88929.00
2024-03-22T03:45:45.904Z,88930.00
2024-03-22T03:46:45.972Z,88926.00
2024-03-22T03:47:46.015Z,88926.00
2024-03-22T03:48:46.013Z,88926.00
2024-03-22T03:49:46.004Z,88929.00
2024-03-22T03:50:46.011Z,88929.00
2024-03-22T03:51:46.032Z,88929.00
2024-03-22T03:52:46.020Z,88928.00
2024-03-22T03:53:46.016Z,88931.00
2024-03-22T03:54:46.016Z,88934.00
2024-03-22T03:55:46.014Z,88933.00
2024-03-22T03:56:46.033Z,88937.00
2024-03-22T03:57:46.015Z,88939.00
2024-03-22T03:58:46.020Z,88941.00
2024-03-22T03:59:46.006Z,88941.00
2024-03-22T04:00:46.010Z,88941.00
2024-03-22T04:01:46.014Z,88941.00
2024-03-22T04:02:46.003Z,88940.00
2024-03-22T04:03:46.013Z,88939.00
2024-03-22T04:04:46.014Z,88935.00
2024-03-22T04:05:45.994Z,88934.00
2024-03-22T04:06:45.991Z,88931.00
2024-03-22T04:07:45.988Z,88927.00
2024-03-22T04:08:46.081Z,88930.00
2024-03-22T04:09:46.113Z,88930.00
2024-03-22T04:10:46.173Z,88930.00
2024-03-22T04:11:46.182Z,88930.00
2024-03-22T04:12:46.184Z,88929.00
2024-03-22T04:13:46.199Z,88931.00
2024-03-22T04:14:46.187Z,88931.00
2024-03-22T04:15:46.257Z,88935.00
2024-03-22T04:16:46.354Z,88935.00
2024-03-22T04:17:46.443Z,88935.00
2024-03-22T04:18:46.444Z,88936.00
2024-03-22T04:19:46.449Z,88938.00
2024-03-22T04:20:46.460Z,88938.00
2024-03-22T04:21:46.487Z,88942.00
2024-03-22T04:22:46.503Z,88939.00
2024-03-22T04:23:46.527Z,88939.00
2024-03-22T04:24:46.590Z,88939.00
2024-03-22T04:25:46.767Z,88937.00
2024-03-22T04:26:46.811Z,88938.00
2024-03-22T04:27:46.872Z,88935.00
2024-03-22T04:28:54.361Z,88935.00
2024-03-22T04:29:54.377Z,88935.00
2024-03-22T04:30:54.404Z,88936.00
2024-03-22T04:32:01.703Z,88934.00
2024-03-22T04:33:01.632Z,88933.00
2024-03-22T04:34:01.640Z,88933.00
2024-03-22T04:35:01.653Z,88937.00
2024-03-22T04:36:01.652Z,88935.00
2024-03-22T04:37:01.673Z,88933.00
2024-03-22T04:38:01.675Z,88932.00
2024-03-22T04:39:01.698Z,88934.00
2024-03-22T04:40:01.708Z,88933.00
2024-03-22T04:41:01.698Z,88939.00
2024-03-22T04:42:01.714Z,88937.00
2024-03-22T04:43:01.721Z,88937.00
2024-03-22T04:44:01.752Z,88935.00
2024-03-22T04:45:01.733Z,88938.00
2024-03-22T04:46:01.738Z,88942.00
2024-03-22T04:47:01.754Z,88943.00
2024-03-22T04:48:01.762Z,88944.00
2024-03-22T04:49:01.786Z,88945.00
2024-03-22T04:50:01.786Z,88945.00
2024-03-22T04:51:01.816Z,88946.00
2024-03-22T04:52:01.828Z,88944.00
2024-03-22T04:53:01.864Z,88945.00
2024-03-22T04:54:01.845Z,88946.00
2024-03-22T04:55:01.863Z,88949.00
2024-03-22T04:56:01.892Z,88948.00
2024-03-22T04:57:01.900Z,88948.00
2024-03-22T04:58:01.903Z,88949.00
2024-03-22T04:59:01.919Z,88951.00
2024-03-22T05:00:01.937Z,88952.00
2024-03-22T05:01:01.938Z,88951.00
2024-03-22T05:02:01.965Z,88953.00
2024-03-22T05:03:01.983Z,88956.00
2024-03-22T05:04:01.999Z,88954.00
2024-03-22T05:05:02.005Z,88954.00
2024-03-22T05:06:02.020Z,88955.00
2024-03-22T05:07:02.021Z,88953.00
2024-03-22T05:08:02.024Z,88952.00
2024-03-22T05:09:02.061Z,88956.00
2024-03-22T05:10:02.053Z,88955.00
2024-03-22T05:11:02.071Z,88956.00
2024-03-22T05:12:02.085Z,88954.00
2024-03-22T05:13:02.096Z,88954.00
2024-03-22T05:14:02.119Z,88954.00
2024-03-22T05:15:02.135Z,88956.00
2024-03-22T05:16:02.136Z,88956.00
2024-03-22T05:17:02.172Z,88954.00
2024-03-22T05:18:02.173Z,88956.00
2024-03-22T05:19:02.195Z,88959.00
2024-03-22T05:20:02.219Z,88956.00
2024-03-22T05:21:02.239Z,88957.00
2024-03-22T05:22:02.314Z,88959.00
2024-03-22T05:23:02.402Z,88961.00
2024-03-22T05:24:02.486Z,88959.00
2024-03-22T05:25:02.561Z,88961.00
2024-03-22T05:26:02.655Z,88962.00
2024-03-22T05:27:02.735Z,88962.00
2024-03-22T05:28:02.823Z,88963.00
2024-03-22T05:29:02.883Z,88963.00
2024-03-22T05:30:02.960Z,88961.00
2024-03-22T05:31:03.055Z,88959.00
2024-03-22T05:32:03.134Z,88959.00
2024-03-22T05:33:03.403Z,88959.00
2024-03-22T05:34:03.295Z,88960.00
2024-03-22T05:35:03.389Z,88961.00
2024-03-22T05:36:03.460Z,88961.00
2024-03-22T05:37:03.633Z,88962.00
2024-03-22T05:38:03.629Z,88961.00
2024-03-22T05:39:03.706Z,88961.00
2024-03-22T05:40:03.796Z,88961.00
2024-03-22T05:41:03.855Z,88961.00
2024-03-22T05:42:03.954Z,88959.00
2024-03-22T05:43:04.011Z,88960.00
2024-03-22T05:44:04.086Z,88956.00
2024-03-22T05:45:04.164Z,88955.00
2024-03-22T05:46:04.265Z,88955.00
2024-03-22T05:47:04.343Z,88954.00
2024-03-22T05:48:04.421Z,88952.00
2024-03-22T05:49:04.485Z,88953.00
2024-03-22T05:50:04.584Z,88952.00
2024-03-22T05:51:04.650Z,88951.00
2024-03-22T05:52:04.723Z,88952.00
2024-03-22T05:53:04.796Z,88951.00
2024-03-22T05:54:04.872Z,88952.00
2024-03-22T05:55:04.953Z,88952.00
2024-03-22T05:56:05.039Z,88950.00
2024-03-22T05:57:05.133Z,88949.00
2024-03-22T05:58:05.201Z,88952.00
2024-03-22T05:59:05.275Z,88952.00
2024-03-22T06:00:05.367Z,88949.00
2024-03-22T06:01:05.446Z,88948.00
2024-03-22T06:02:05.531Z,88949.00
2024-03-22T06:03:05.607Z,88948.00
2024-03-22T06:04:05.694Z,88948.00
2024-03-22T06:05:05.771Z,88947.00
2024-03-22T06:06:05.867Z,88947.00
2024-03-22T06:07:05.940Z,88949.00
2024-03-22T06:08:06.042Z,88950.00
2024-03-22T06:09:06.159Z,88950.00
2024-03-22T06:10:06.223Z,88952.00
2024-03-22T06:11:07.727Z,88951.00
2024-03-22T06:12:06.248Z,88950.00
2024-03-22T06:13:06.254Z,88952.00
2024-03-22T06:14:06.263Z,88949.00
2024-03-22T06:15:06.266Z,88951.00
2024-03-22T06:16:06.278Z,88954.00
2024-03-22T06:17:06.285Z,88952.00
2024-03-22T06:18:06.297Z,88954.00
2024-03-22T06:19:06.327Z,88954.00
2024-03-22T06:20:06.340Z,88951.00
2024-03-22T06:21:06.347Z,88952.00
2024-03-22T06:23:06.366Z,88952.00
2024-03-22T06:24:06.366Z,88954.00
2024-03-22T06:25:06.383Z,88955.00
2024-03-22T06:26:06.393Z,88953.00
2024-03-22T06:27:06.427Z,88952.00
2024-03-22T06:28:06.430Z,88953.00
2024-03-22T06:29:06.498Z,88951.00
2024-03-22T06:30:06.580Z,88949.00
2024-03-22T06:31:06.635Z,88949.00
2024-03-22T06:32:06.668Z,88950.00
2024-03-22T06:33:06.662Z,88948.00
2024-03-22T06:34:06.691Z,88950.00
2024-03-22T06:35:06.756Z,88945.00
2024-03-22T06:36:06.714Z,88943.00
2024-03-22T06:37:06.724Z,88944.00
2024-03-22T06:38:06.751Z,88941.00
2024-03-22T06:39:06.728Z,88941.00
2024-03-22T06:40:06.745Z,88945.00
2024-03-22T06:41:06.753Z,88941.00
2024-03-22T06:42:06.774Z,88939.00
2024-03-22T06:43:06.783Z,88938.00
2024-03-22T06:44:06.795Z,88939.00
2024-03-22T06:45:06.806Z,88937.00
2024-03-22T06:46:06.823Z,88938.00
2024-03-22T06:47:06.818Z,88938.00
2024-03-22T06:48:06.827Z,88935.00
2024-03-22T06:49:06.835Z,88938.00
2024-03-22T06:50:06.866Z,88934.00
2024-03-22T06:51:06.923Z,88933.00
2024-03-22T06:52:06.872Z,88929.00
2024-03-22T06:53:06.871Z,88928.00
2024-03-22T06:54:06.905Z,88927.00
2024-03-22T06:55:06.962Z,88930.00
2024-03-22T06:56:06.906Z,88924.00
2024-03-22T06:57:06.939Z,88924.00
2024-03-22T06:58:06.935Z,88924.00
2024-03-22T06:59:06.944Z,88922.00
2024-03-22T07:00:06.946Z,88922.00
2024-03-22T07:01:06.950Z,88922.00
2024-03-22T07:02:06.956Z,88923.00
2024-03-22T07:03:06.989Z,88922.00
2024-03-22T07:04:06.984Z,88920.00
2024-03-22T07:05:06.991Z,88917.00
2024-03-22T07:06:06.990Z,88916.00
2024-03-22T07:07:07.027Z,88916.00
2024-03-22T07:08:06.997Z,88916.00
2024-03-22T07:09:07.020Z,88915.00
2024-03-22T07:10:07.036Z,88914.00
2024-03-22T07:11:07.030Z,88913.00
2024-03-22T07:12:07.033Z,88914.00
2024-03-22T07:13:07.046Z,88913.00
2024-03-22T07:14:07.066Z,88912.00
2024-03-22T07:15:07.124Z,88912.00
2024-03-22T07:16:07.139Z,88910.00
2024-03-22T07:17:07.214Z,88910.00
2024-03-22T07:18:07.227Z,88906.00
2024-03-22T07:19:07.260Z,88907.00
2024-03-22T07:20:07.308Z,88905.00
2024-03-22T07:21:07.328Z,88904.00
2024-03-22T07:22:07.791Z,88903.00
2024-03-22T07:23:07.422Z,88900.00
2024-03-22T07:24:07.427Z,88901.00
2024-03-22T07:25:07.436Z,88900.00
2024-03-22T07:26:09.197Z,88897.00
2024-03-22T07:27:07.502Z,88897.00
2024-03-22T07:28:07.487Z,88898.00
2024-03-22T07:29:07.500Z,88896.00
2024-03-22T07:30:07.498Z,88896.00
2024-03-22T07:31:07.534Z,88894.00
2024-03-22T07:32:07.479Z,88895.00
2024-03-22T07:33:07.476Z,88895.00
2024-03-22T07:34:07.492Z,88894.00
2024-03-22T07:35:07.483Z,88892.00
2024-03-22T07:36:07.479Z,88889.00
2024-03-22T07:38:07.510Z,88888.00
2024-03-22T07:39:07.489Z,88888.00
2024-03-22T07:40:07.504Z,88886.00
2024-03-22T07:41:07.494Z,88889.00
2024-03-22T07:42:08.820Z,88889.00
2024-03-22T07:43:07.511Z,88888.00
2024-03-22T07:44:07.563Z,88886.00
2024-03-22T07:45:07.540Z,88887.00
2024-03-22T07:46:07.548Z,88881.00
2024-03-22T07:47:07.830Z,88882.00
2024-03-22T07:48:07.541Z,88880.00
2024-03-22T07:49:07.553Z,88878.00
2024-03-22T07:50:07.804Z,88878.00
2024-03-22T07:51:07.537Z,88879.00
2024-03-22T07:52:07.529Z,88878.00
2024-03-22T07:53:07.532Z,88876.00
2024-03-22T07:54:07.549Z,88875.00
2024-03-22T07:55:07.589Z,88877.00
2024-03-22T07:56:07.537Z,88876.00
2024-03-22T07:57:07.541Z,88872.00
2024-03-22T07:58:07.521Z,88872.00
2024-03-22T07:59:07.518Z,88871.00
2024-03-22T08:00:07.520Z,88868.00
2024-03-22T08:01:07.546Z,88872.00
2024-03-22T08:02:07.529Z,88871.00
2024-03-22T08:03:07.523Z,88871.00
2024-03-22T08:04:07.618Z,88871.00
2024-03-22T08:05:07.531Z,88868.00
2024-03-22T08:06:07.521Z,88865.00
2024-03-22T08:07:07.541Z,88863.00
2024-03-22T08:08:07.519Z,88862.00
2024-03-22T08:09:07.522Z,88861.00
2024-03-22T08:10:07.540Z,88860.00
2024-03-22T08:11:07.563Z,88855.00
2024-03-22T08:12:07.656Z,88854.00
2024-03-22T08:13:07.550Z,88852.00
2024-03-22T08:14:07.614Z,88849.00
2024-03-22T08:15:07.533Z,88845.00
2024-03-22T08:16:07.582Z,88843.00
2024-03-22T08:17:07.573Z,88843.00
2024-03-22T08:18:07.548Z,88841.00
2024-03-22T08:19:07.561Z,88841.00
2024-03-22T08:20:07.544Z,88842.00
2024-03-22T08:21:07.548Z,88840.00
2024-03-22T08:22:08.309Z,88839.00
2024-03-22T08:23:07.565Z,88840.00
2024-03-22T08:24:07.605Z,88839.00
2024-03-22T08:25:07.574Z,88836.00
2024-03-22T08:26:07.593Z,88834.00
2024-03-22T08:27:07.556Z,88832.00
2024-03-22T08:28:11.709Z,88832.00
2024-03-22T08:29:08.600Z,88830.00
2024-03-22T08:30:07.565Z,88829.00
2024-03-22T08:31:07.583Z,88828.00
2024-03-22T08:32:07.573Z,88825.00
2024-03-22T08:33:07.581Z,88824.00
2024-03-22T08:34:07.586Z,88825.00
2024-03-22T08:35:07.618Z,88823.00
2024-03-22T08:36:07.569Z,88825.00
2024-03-22T08:37:07.589Z,88826.00
2024-03-22T08:38:07.705Z,88824.00
2024-03-22T08:39:07.665Z,88821.00
2024-03-22T08:40:07.657Z,88822.00
2024-03-22T08:41:07.623Z,88819.00
2024-03-22T08:42:07.623Z,88818.00
2024-03-22T08:43:07.625Z,88817.00
2024-03-22T08:44:07.578Z,88816.00
2024-03-22T08:45:07.582Z,88815.00
2024-03-22T08:46:07.561Z,88815.00
2024-03-22T08:47:07.578Z,88813.00
2024-03-22T08:48:07.563Z,88811.00
2024-03-22T08:49:07.573Z,88815.00
2024-03-22T08:50:07.584Z,88814.00
2024-03-22T08:51:07.564Z,88815.00
2024-03-22T08:52:07.569Z,88814.00
2024-03-22T08:53:07.550Z,88815.00
2024-03-22T08:54:07.565Z,88813.00
2024-03-22T08:55:07.600Z,88810.00
2024-03-22T08:56:07.553Z,88810.00
2024-03-22T08:57:07.615Z,88807.00
2024-03-22T08:58:07.611Z,88809.00
2024-03-22T08:59:07.633Z,88806.00
2024-03-22T09:00:07.671Z,88805.00
2024-03-22T09:01:07.712Z,88804.00
2024-03-22T09:02:07.719Z,88802.00
2024-03-22T09:03:07.714Z,88802.00
2024-03-22T09:04:07.699Z,88800.00
2024-03-22T09:05:07.727Z,88798.00
2024-03-22T09:06:09.010Z,88798.00
2024-03-22T09:07:07.706Z,88797.00
2024-03-22T09:08:07.716Z,88797.00
2024-03-22T09:09:07.674Z,88796.00
2024-03-22T09:10:07.674Z,88799.00
2024-03-22T09:11:07.676Z,88801.00
2024-03-22T09:12:07.721Z,88797.00
2024-03-22T09:13:07.769Z,88794.00
2024-03-22T09:14:07.789Z,88791.00
2024-03-22T09:15:07.794Z,88791.00
2024-03-22T09:16:07.806Z,88787.00
2024-03-22T09:17:07.824Z,88786.00
2024-03-22T09:18:07.813Z,88783.00
2024-03-22T09:19:10.239Z,88781.00
2024-03-22T09:20:07.880Z,88779.00
2024-03-22T09:21:07.814Z,88775.00
2024-03-22T09:22:07.831Z,88774.00
2024-03-22T09:23:07.855Z,88770.00
2024-03-22T09:24:07.874Z,88772.00
2024-03-22T09:25:07.889Z,88770.00
2024-03-22T09:26:07.842Z,88771.00
2024-03-22T09:27:07.868Z,88770.00
2024-03-22T09:28:07.851Z,88769.00
2024-03-22T09:29:07.904Z,88768.00
2024-03-22T09:30:07.841Z,88766.00
2024-03-22T09:31:07.839Z,88768.00
2024-03-22T09:32:07.868Z,88768.00
2024-03-22T09:33:07.919Z,88767.00
2024-03-22T09:34:07.826Z,88766.00
2024-03-22T09:35:07.816Z,88766.00
2024-03-22T09:36:07.886Z,88761.00
2024-03-22T09:37:07.900Z,88759.00
2024-03-22T09:38:07.890Z,88759.00
2024-03-22T09:39:07.812Z,88758.00
2024-03-22T09:40:07.811Z,88755.00
2024-03-22T09:41:08.118Z,88752.00
2024-03-22T09:42:07.822Z,88754.00
2024-03-22T09:43:07.863Z,88754.00
2024-03-22T09:44:07.842Z,88753.00
2024-03-22T09:45:07.889Z,88754.00
2024-03-22T09:46:07.966Z,88752.00
2024-03-22T09:47:08.003Z,88753.00
2024-03-22T09:48:08.078Z,88750.00
2024-03-22T09:49:08.130Z,88748.00
2024-03-22T09:50:08.197Z,88747.00
2024-03-22T09:51:08.236Z,88743.00
2024-03-22T09:52:08.302Z,88745.00
2024-03-22T09:53:08.381Z,88742.00
2024-03-22T09:54:08.453Z,88739.00
2024-03-22T09:55:08.473Z,88739.00
2024-03-22T09:56:08.542Z,88735.00
2024-03-22T09:57:08.545Z,88737.00
2024-03-22T09:58:08.550Z,88734.00
2024-03-22T09:59:08.611Z,88733.00
2024-03-22T10:00:08.638Z,88732.00
2024-03-22T10:01:08.650Z,88732.00
2024-03-22T10:02:08.678Z,88732.00
2024-03-22T10:03:08.711Z,88729.00
2024-03-22T10:04:08.722Z,88730.00
2024-03-22T10:05:08.712Z,88727.00
2024-03-22T10:06:08.733Z,88727.00
2024-03-22T10:07:08.737Z,88726.00
2024-03-22T10:08:08.735Z,88724.00
2024-03-22T10:09:08.763Z,88724.00
2024-03-22T10:10:09.295Z,88723.00
2024-03-22T10:11:08.778Z,88722.00
2024-03-22T10:12:08.805Z,88722.00
2024-03-22T10:13:08.798Z,88721.00
2024-03-22T10:14:15.632Z,88721.00
2024-03-22T10:15:11.043Z,88720.00
2024-03-22T10:16:08.801Z,88718.00
2024-03-22T10:17:08.810Z,88717.00
2024-03-22T10:18:08.804Z,88717.00
2024-03-22T10:19:08.809Z,88715.00
2024-03-22T10:20:08.807Z,88717.00
2024-03-22T10:21:08.813Z,88714.00
2024-03-22T10:22:08.789Z,88714.00
2024-03-22T10:23:08.835Z,88711.00
2024-03-22T10:24:08.818Z,88712.00
2024-03-22T10:25:08.797Z,88713.00
2024-03-22T10:26:08.789Z,88712.00
2024-03-22T10:27:08.819Z,88710.00
2024-03-22T10:28:10.650Z,88713.00
2024-03-22T10:29:08.846Z,88709.00
2024-03-22T10:30:08.964Z,88707.00
2024-03-22T10:31:08.953Z,88705.00
2024-03-22T10:32:09.040Z,88705.00
2024-03-22T10:33:08.959Z,88706.00
2024-03-22T10:34:08.949Z,88703.00
2024-03-22T10:35:08.962Z,88704.00
2024-03-22T10:36:08.980Z,88702.00
2024-03-22T10:37:09.075Z,88701.00
2024-03-22T10:38:09.065Z,88698.00
2024-03-22T10:39:09.010Z,88698.00
2024-03-22T10:40:09.009Z,88696.00
2024-03-22T10:41:09.023Z,88695.00
2024-03-22T10:42:09.096Z,88693.00
2024-03-22T10:43:09.069Z,88691.00
2024-03-22T10:44:09.119Z,88691.00
2024-03-22T10:45:09.115Z,88688.00
2024-03-22T10:46:09.038Z,88685.00
2024-03-22T10:47:09.031Z,88685.00
2024-03-22T10:48:09.214Z,88684.00
2024-03-22T10:49:09.165Z,88680.00
2024-03-22T10:50:09.127Z,88680.00
2024-03-22T10:51:09.066Z,88679.00
2024-03-22T10:52:09.077Z,88677.00
2024-03-22T10:53:09.069Z,88675.00
2024-03-22T10:54:09.062Z,88673.00
2024-03-22T10:55:11.019Z,88674.00
2024-03-22T10:56:09.167Z,88671.00
2024-03-22T10:57:09.066Z,88669.00
2024-03-22T10:58:09.063Z,88667.00
2024-03-22T10:59:09.083Z,88665.00
2024-03-22T11:00:09.077Z,88665.00
2024-03-22T11:01:09.092Z,88665.00
2024-03-22T11:02:09.125Z,88665.00
2024-03-22T11:03:09.101Z,88662.00
2024-03-22T11:04:09.104Z,88661.00
2024-03-22T11:05:09.332Z,88658.00
2024-03-22T11:06:09.149Z,88658.00
2024-03-22T11:07:09.229Z,88656.00
2024-03-22T11:08:09.139Z,88654.00
2024-03-22T11:09:09.178Z,88651.00
2024-03-22T11:10:09.159Z,88651.00
2024-03-22T11:11:09.146Z,88650.00
2024-03-22T11:12:09.154Z,88647.00
2024-03-22T11:13:09.154Z,88644.00
2024-03-22T11:14:09.214Z,88645.00
2024-03-22T11:15:09.202Z,88643.00
2024-03-22T11:16:09.163Z,88641.00
2024-03-22T11:17:09.365Z,88639.00
2024-03-22T11:18:09.195Z,88637.00
2024-03-22T11:19:09.294Z,88636.00
2024-03-22T11:20:09.155Z,88634.00
2024-03-22T11:21:09.171Z,88635.00
2024-03-22T11:22:09.165Z,88634.00
2024-03-22T11:23:09.218Z,88633.00
2024-03-22T11:24:09.174Z,88631.00
2024-03-22T11:25:09.164Z,88630.00
2024-03-22T11:26:09.166Z,88630.00
2024-03-22T11:27:09.181Z,88627.00
2024-03-22T11:28:10.652Z,88626.00
2024-03-22T11:29:09.163Z,88623.00
2024-03-22T11:30:09.173Z,88621.00
2024-03-22T11:31:09.154Z,88619.00
2024-03-22T11:32:09.159Z,88619.00
2024-03-22T11:33:09.168Z,88618.00
2024-03-22T11:34:09.183Z,88617.00
2024-03-22T11:35:09.230Z,88615.00
2024-03-22T11:36:09.161Z,88614.00
2024-03-22T11:37:09.161Z,88611.00
2024-03-22T11:38:09.170Z,88609.00
2024-03-22T11:39:09.152Z,88607.00
2024-03-22T11:40:09.164Z,88606.00
2024-03-22T11:41:09.160Z,88602.00
2024-03-22T11:42:09.236Z,88601.00
2024-03-22T11:43:09.173Z,88597.00
2024-03-22T11:44:09.143Z,88594.00
2024-03-22T11:45:09.152Z,88592.00
2024-03-22T11:46:09.144Z,88593.00
2024-03-22T11:47:09.155Z,88592.00